sensor_id;sensor_type;location;lat;lon;timestamp;temperature;humidity
18456;DHT22;9357;49.900;8.208;2022-11-15T00:00:54;10.10;99.90
18456;DHT22;9357;49.900;8.208;2022-11-15T00:02:26;10.10;99.90
18456;DHT22;9357;49.900;8.208;2022-11-15T00:03:59;10.10;99.90
18456;DHT22;9357;49.900;8.208;2022-11-15T00:05:34;10.10;99.90
18456;DHT22;9357;49.900;8.208;2022-11-15T00:07:08;10.10;99.90
18456;DHT22;9357;49.900;8.208;2022-11-15T00:08:58;10.20;99.90
18456;DHT22;9357;49.900;8.208;2022-11-15T00:10:31;10.20;99.90
18456;DHT22;9357;49.900;8.208;2022-11-15T00:12:03;10.20;99.90
18456;DHT22;9357;49.900;8.208;2022-11-15T00:13:36;10.20;99.90
18456;DHT22;9357;49.900;8.208;2022-11-15T00:15:08;10.20;99.90
18456;DHT22;9357;49.900;8.208;2022-11-15T00:16:41;10.20;99.90
18456;DHT22;9357;49.900;8.208;2022-11-15T00:18:14;10.20;99.90
18456;DHT22;9357;49.900;8.208;2022-11-15T00:19:47;10.20;99.90
18456;DHT22;9357;49.900;8.208;2022-11-15T00:21:20;10.20;99.90
18456;DHT22;9357;49.900;8.208;2022-11-15T00:22:56;10.20;99.90
18456;DHT22;9357;49.900;8.208;2022-11-15T00:24:27;10.20;99.90
18456;DHT22;9357;49.900;8.208;2022-11-15T00:26:00;10.20;99.90
18456;DHT22;9357;49.900;8.208;2022-11-15T00:27:32;10.30;99.90
18456;DHT22;9357;49.900;8.208;2022-11-15T00:29:05;10.30;99.90
18456;DHT22;9357;49.900;8.208;2022-11-15T00:30:38;10.40;99.90
18456;DHT22;9357;49.900;8.208;2022-11-15T00:32:10;10.40;99.90
18456;DHT22;9357;49.900;8.208;2022-11-15T00:33:43;10.40;99.90
18456;DHT22;9357;49.900;8.208;2022-11-15T00:35:15;10.40;99.90
18456;DHT22;9357;49.900;8.208;2022-11-15T00:36:48;10.40;99.90
18456;DHT22;9357;49.900;8.208;2022-11-15T00:38:22;10.40;99.90
18456;DHT22;9357;49.900;8.208;2022-11-15T00:39:55;10.30;99.90
18456;DHT22;9357;49.900;8.208;2022-11-15T00:41:28;10.30;99.90
18456;DHT22;9357;49.900;8.208;2022-11-15T00:43:00;10.30;99.90
18456;DHT22;9357;49.900;8.208;2022-11-15T00:44:33;10.30;99.90
18456;DHT22;9357;49.900;8.208;2022-11-15T00:46:06;10.20;99.90
18456;DHT22;9357;49.900;8.208;2022-11-15T00:47:39;10.30;99.90
18456;DHT22;9357;49.900;8.208;2022-11-15T00:49:12;10.30;99.90
18456;DHT22;9357;49.900;8.208;2022-11-15T00:50:45;10.30;99.90
18456;DHT22;9357;49.900;8.208;2022-11-15T00:52:16;10.30;99.90
18456;DHT22;9357;49.900;8.208;2022-11-15T00:53:50;10.30;99.90
18456;DHT22;9357;49.900;8.208;2022-11-15T00:55:23;10.30;99.90
18456;DHT22;9357;49.900;8.208;2022-11-15T00:56:55;10.30;99.90
18456;DHT22;9357;49.900;8.208;2022-11-15T00:58:28;10.30;99.90
18456;DHT22;9357;49.900;8.208;2022-11-15T00:59:59;10.30;99.90
18456;DHT22;9357;49.900;8.208;2022-11-15T01:01:32;10.30;99.90
18456;DHT22;9357;49.900;8.208;2022-11-15T01:03:05;10.30;99.90
18456;DHT22;9357;49.900;8.208;2022-11-15T01:04:38;10.30;99.90
18456;DHT22;9357;49.900;8.208;2022-11-15T01:06:11;10.40;99.90
18456;DHT22;9357;49.900;8.208;2022-11-15T01:07:43;10.40;99.90
18456;DHT22;9357;49.900;8.208;2022-11-15T01:09:18;10.30;99.90
18456;DHT22;9357;49.900;8.208;2022-11-15T01:10:50;10.40;99.90
18456;DHT22;9357;49.900;8.208;2022-11-15T01:12:23;10.40;99.90
18456;DHT22;9357;49.900;8.208;2022-11-15T01:13:56;10.40;99.90
18456;DHT22;9357;49.900;8.208;2022-11-15T01:15:29;10.40;99.90
18456;DHT22;9357;49.900;8.208;2022-11-15T01:17:01;10.40;99.90
18456;DHT22;9357;49.900;8.208;2022-11-15T01:18:33;10.40;99.90
18456;DHT22;9357;49.900;8.208;2022-11-15T01:20:07;10.40;99.90
18456;DHT22;9357;49.900;8.208;2022-11-15T01:21:40;10.40;99.90
18456;DHT22;9357;49.900;8.208;2022-11-15T01:23:13;10.40;99.90
18456;DHT22;9357;49.900;8.208;2022-11-15T01:24:46;10.40;99.90
18456;DHT22;9357;49.900;8.208;2022-11-15T01:26:19;10.40;99.90
18456;DHT22;9357;49.900;8.208;2022-11-15T01:27:51;10.40;99.90
18456;DHT22;9357;49.900;8.208;2022-11-15T01:29:24;10.40;99.90
18456;DHT22;9357;49.900;8.208;2022-11-15T01:30:58;10.50;99.90
18456;DHT22;9357;49.900;8.208;2022-11-15T01:32:31;10.50;99.90
18456;DHT22;9357;49.900;8.208;2022-11-15T01:34:04;10.50;99.90
18456;DHT22;9357;49.900;8.208;2022-11-15T01:35:38;10.50;99.90
18456;DHT22;9357;49.900;8.208;2022-11-15T01:37:11;10.50;99.90
18456;DHT22;9357;49.900;8.208;2022-11-15T01:38:44;10.60;99.90
18456;DHT22;9357;49.900;8.208;2022-11-15T01:40:18;10.60;99.90
18456;DHT22;9357;49.900;8.208;2022-11-15T01:41:51;10.70;99.90
18456;DHT22;9357;49.900;8.208;2022-11-15T01:43:25;10.70;99.90
18456;DHT22;9357;49.900;8.208;2022-11-15T01:44:59;10.70;99.90
18456;DHT22;9357;49.900;8.208;2022-11-15T01:46:33;10.70;99.90
18456;DHT22;9357;49.900;8.208;2022-11-15T01:48:09;10.70;99.90
18456;DHT22;9357;49.900;8.208;2022-11-15T01:49:52;10.80;99.90
18456;DHT22;9357;49.900;8.208;2022-11-15T01:51:30;10.80;99.90
18456;DHT22;9357;49.900;8.208;2022-11-15T01:53:03;10.90;99.90
18456;DHT22;9357;49.900;8.208;2022-11-15T01:54:36;10.90;99.90
18456;DHT22;9357;49.900;8.208;2022-11-15T01:56:13;10.80;99.90
18456;DHT22;9357;49.900;8.208;2022-11-15T01:57:47;10.90;99.90
18456;DHT22;9357;49.900;8.208;2022-11-15T01:59:21;10.90;99.90
18456;DHT22;9357;49.900;8.208;2022-11-15T02:00:54;10.90;99.90
18456;DHT22;9357;49.900;8.208;2022-11-15T02:02:27;11.00;99.90
18456;DHT22;9357;49.900;8.208;2022-11-15T02:04:02;11.00;99.90
18456;DHT22;9357;49.900;8.208;2022-11-15T02:05:36;11.00;99.90
18456;DHT22;9357;49.900;8.208;2022-11-15T02:07:11;11.00;99.90
18456;DHT22;9357;49.900;8.208;2022-11-15T02:08:45;11.00;99.90
18456;DHT22;9357;49.900;8.208;2022-11-15T02:10:19;11.00;99.90
18456;DHT22;9357;49.900;8.208;2022-11-15T02:11:54;11.00;99.90
18456;DHT22;9357;49.900;8.208;2022-11-15T02:13:28;11.00;99.90
18456;DHT22;9357;49.900;8.208;2022-11-15T02:15:02;11.10;99.90
18456;DHT22;9357;49.900;8.208;2022-11-15T02:16:44;11.00;99.90
18456;DHT22;9357;49.900;8.208;2022-11-15T02:18:24;11.00;99.90
18456;DHT22;9357;49.900;8.208;2022-11-15T02:22:14;10.90;99.90
18456;DHT22;9357;49.900;8.208;2022-11-15T02:24:28;10.80;99.90
18456;DHT22;9357;49.900;8.208;2022-11-15T02:26:41;10.70;99.90
18456;DHT22;9357;49.900;8.208;2022-11-15T02:28:44;10.60;99.90
18456;DHT22;9357;49.900;8.208;2022-11-15T02:30:22;10.50;99.90
18456;DHT22;9357;49.900;8.208;2022-11-15T02:32:00;10.50;99.90
18456;DHT22;9357;49.900;8.208;2022-11-15T02:33:41;10.50;99.90
18456;DHT22;9357;49.900;8.208;2022-11-15T02:35:22;10.40;99.90
18456;DHT22;9357;49.900;8.208;2022-11-15T02:37:05;10.50;99.90
18456;DHT22;9357;49.900;8.208;2022-11-15T02:38:43;10.40;99.90
18456;DHT22;9357;49.900;8.208;2022-11-15T02:40:26;10.40;99.90
18456;DHT22;9357;49.900;8.208;2022-11-15T02:42:04;10.40;99.90
18456;DHT22;9357;49.900;8.208;2022-11-15T02:44:02;10.40;99.90
18456;DHT22;9357;49.900;8.208;2022-11-15T02:45:39;10.40;99.90
18456;DHT22;9357;49.900;8.208;2022-11-15T02:47:13;10.40;99.90
18456;DHT22;9357;49.900;8.208;2022-11-15T02:48:49;10.40;99.90
18456;DHT22;9357;49.900;8.208;2022-11-15T02:50:25;10.40;99.90
18456;DHT22;9357;49.900;8.208;2022-11-15T02:51:58;10.30;99.90
18456;DHT22;9357;49.900;8.208;2022-11-15T02:53:31;10.30;99.90
18456;DHT22;9357;49.900;8.208;2022-11-15T02:55:04;10.30;99.90
18456;DHT22;9357;49.900;8.208;2022-11-15T02:56:37;10.30;99.90
18456;DHT22;9357;49.900;8.208;2022-11-15T02:58:35;10.30;99.90
18456;DHT22;9357;49.900;8.208;2022-11-15T03:00:12;10.30;99.90
18456;DHT22;9357;49.900;8.208;2022-11-15T03:01:56;10.30;99.90
18456;DHT22;9357;49.900;8.208;2022-11-15T03:03:46;10.20;99.90
18456;DHT22;9357;49.900;8.208;2022-11-15T03:05:26;10.20;99.90
18456;DHT22;9357;49.900;8.208;2022-11-15T03:07:06;10.20;99.90
18456;DHT22;9357;49.900;8.208;2022-11-15T03:08:44;10.20;99.90
18456;DHT22;9357;49.900;8.208;2022-11-15T03:10:24;10.20;99.90
18456;DHT22;9357;49.900;8.208;2022-11-15T03:12:01;10.10;99.90
18456;DHT22;9357;49.900;8.208;2022-11-15T03:13:39;10.10;99.90
18456;DHT22;9357;49.900;8.208;2022-11-15T03:15:19;10.10;99.90
18456;DHT22;9357;49.900;8.208;2022-11-15T03:17:01;10.20;99.90
18456;DHT22;9357;49.900;8.208;2022-11-15T03:18:38;10.10;99.90
18456;DHT22;9357;49.900;8.208;2022-11-15T03:20:13;10.10;99.90
18456;DHT22;9357;49.900;8.208;2022-11-15T03:21:47;10.10;99.90
18456;DHT22;9357;49.900;8.208;2022-11-15T03:23:20;10.20;99.90
18456;DHT22;9357;49.900;8.208;2022-11-15T03:24:57;10.20;99.90
18456;DHT22;9357;49.900;8.208;2022-11-15T03:26:30;10.20;99.90
18456;DHT22;9357;49.900;8.208;2022-11-15T03:28:06;10.20;99.90
18456;DHT22;9357;49.900;8.208;2022-11-15T03:29:45;10.20;99.90
18456;DHT22;9357;49.900;8.208;2022-11-15T03:31:19;10.20;99.90
18456;DHT22;9357;49.900;8.208;2022-11-15T03:33:19;10.20;99.90
18456;DHT22;9357;49.900;8.208;2022-11-15T03:34:57;10.20;99.90
18456;DHT22;9357;49.900;8.208;2022-11-15T03:36:30;10.10;99.90
18456;DHT22;9357;49.900;8.208;2022-11-15T03:38:10;10.10;99.90
18456;DHT22;9357;49.900;8.208;2022-11-15T03:39:44;10.20;99.90
18456;DHT22;9357;49.900;8.208;2022-11-15T03:41:21;10.20;99.90
18456;DHT22;9357;49.900;8.208;2022-11-15T03:43:02;10.20;99.90
18456;DHT22;9357;49.900;8.208;2022-11-15T03:44:41;10.20;99.90
18456;DHT22;9357;49.900;8.208;2022-11-15T03:46:23;10.20;99.90
18456;DHT22;9357;49.900;8.208;2022-11-15T03:48:00;10.20;99.90
18456;DHT22;9357;49.900;8.208;2022-11-15T03:49:36;10.20;99.90
18456;DHT22;9357;49.900;8.208;2022-11-15T03:51:11;10.20;99.90
18456;DHT22;9357;49.900;8.208;2022-11-15T03:52:45;10.20;99.90
18456;DHT22;9357;49.900;8.208;2022-11-15T03:54:18;10.20;99.90
18456;DHT22;9357;49.900;8.208;2022-11-15T03:55:50;10.20;99.90
18456;DHT22;9357;49.900;8.208;2022-11-15T03:57:23;10.20;99.90
18456;DHT22;9357;49.900;8.208;2022-11-15T03:58:55;10.30;99.90
18456;DHT22;9357;49.900;8.208;2022-11-15T04:00:29;10.20;99.90
18456;DHT22;9357;49.900;8.208;2022-11-15T04:02:01;10.30;99.90
18456;DHT22;9357;49.900;8.208;2022-11-15T04:03:34;10.30;99.90
18456;DHT22;9357;49.900;8.208;2022-11-15T04:05:08;10.30;99.90
18456;DHT22;9357;49.900;8.208;2022-11-15T04:06:41;10.30;99.90
18456;DHT22;9357;49.900;8.208;2022-11-15T04:08:14;10.30;99.90
18456;DHT22;9357;49.900;8.208;2022-11-15T04:09:47;10.40;99.90
18456;DHT22;9357;49.900;8.208;2022-11-15T04:11:34;10.30;99.90
18456;DHT22;9357;49.900;8.208;2022-11-15T04:13:07;10.30;99.90
18456;DHT22;9357;49.900;8.208;2022-11-15T04:14:40;10.40;99.90
18456;DHT22;9357;49.900;8.208;2022-11-15T04:16:32;10.40;99.90
18456;DHT22;9357;49.900;8.208;2022-11-15T04:18:07;10.40;99.90
18456;DHT22;9357;49.900;8.208;2022-11-15T04:19:40;10.40;99.90
18456;DHT22;9357;49.900;8.208;2022-11-15T04:21:32;10.40;99.90
18456;DHT22;9357;49.900;8.208;2022-11-15T04:23:23;10.40;99.90
18456;DHT22;9357;49.900;8.208;2022-11-15T04:25:13;10.50;99.90
18456;DHT22;9357;49.900;8.208;2022-11-15T04:26:53;10.40;99.90
18456;DHT22;9357;49.900;8.208;2022-11-15T04:28:26;10.40;99.90
18456;DHT22;9357;49.900;8.208;2022-11-15T04:29:59;10.40;99.90
18456;DHT22;9357;49.900;8.208;2022-11-15T04:31:31;10.50;99.90
18456;DHT22;9357;49.900;8.208;2022-11-15T04:33:04;10.50;99.90
18456;DHT22;9357;49.900;8.208;2022-11-15T04:34:36;10.40;99.90
18456;DHT22;9357;49.900;8.208;2022-11-15T04:36:10;10.40;99.90
18456;DHT22;9357;49.900;8.208;2022-11-15T04:38:03;10.40;99.90
18456;DHT22;9357;49.900;8.208;2022-11-15T04:39:36;10.50;99.90
18456;DHT22;9357;49.900;8.208;2022-11-15T04:41:08;10.50;99.90
18456;DHT22;9357;49.900;8.208;2022-11-15T04:42:41;10.50;99.90
18456;DHT22;9357;49.900;8.208;2022-11-15T04:44:14;10.40;99.90
18456;DHT22;9357;49.900;8.208;2022-11-15T04:45:46;10.50;99.90
18456;DHT22;9357;49.900;8.208;2022-11-15T04:47:18;10.50;99.90
18456;DHT22;9357;49.900;8.208;2022-11-15T04:48:52;10.40;99.90
18456;DHT22;9357;49.900;8.208;2022-11-15T04:50:29;10.50;99.90
18456;DHT22;9357;49.900;8.208;2022-11-15T04:52:02;10.50;99.90
18456;DHT22;9357;49.900;8.208;2022-11-15T04:53:37;10.50;99.90
18456;DHT22;9357;49.900;8.208;2022-11-15T04:55:10;10.50;99.90
18456;DHT22;9357;49.900;8.208;2022-11-15T04:56:43;10.50;99.90
18456;DHT22;9357;49.900;8.208;2022-11-15T04:58:14;10.50;99.90
18456;DHT22;9357;49.900;8.208;2022-11-15T04:59:47;10.50;99.90
18456;DHT22;9357;49.900;8.208;2022-11-15T05:01:20;10.50;99.90
18456;DHT22;9357;49.900;8.208;2022-11-15T05:02:53;10.50;99.90
18456;DHT22;9357;49.900;8.208;2022-11-15T05:04:45;10.50;99.90
18456;DHT22;9357;49.900;8.208;2022-11-15T05:06:18;10.50;99.90
18456;DHT22;9357;49.900;8.208;2022-11-15T05:07:51;10.50;99.90
18456;DHT22;9357;49.900;8.208;2022-11-15T05:09:25;10.50;99.90
18456;DHT22;9357;49.900;8.208;2022-11-15T05:10:58;10.50;99.90
18456;DHT22;9357;49.900;8.208;2022-11-15T05:12:29;10.50;99.90
18456;DHT22;9357;49.900;8.208;2022-11-15T05:14:02;10.50;99.90
18456;DHT22;9357;49.900;8.208;2022-11-15T05:15:35;10.50;99.90
18456;DHT22;9357;49.900;8.208;2022-11-15T05:17:08;10.50;99.90
18456;DHT22;9357;49.900;8.208;2022-11-15T05:18:41;10.50;99.90
18456;DHT22;9357;49.900;8.208;2022-11-15T05:20:14;10.50;99.90
18456;DHT22;9357;49.900;8.208;2022-11-15T05:21:47;10.50;99.90
18456;DHT22;9357;49.900;8.208;2022-11-15T05:23:18;10.50;99.90
18456;DHT22;9357;49.900;8.208;2022-11-15T05:24:53;10.50;99.90
18456;DHT22;9357;49.900;8.208;2022-11-15T05:26:24;10.60;99.90
18456;DHT22;9357;49.900;8.208;2022-11-15T05:27:57;10.50;99.90
18456;DHT22;9357;49.900;8.208;2022-11-15T05:29:30;10.50;99.90
18456;DHT22;9357;49.900;8.208;2022-11-15T05:31:03;10.50;99.90
18456;DHT22;9357;49.900;8.208;2022-11-15T05:32:36;10.50;99.90
18456;DHT22;9357;49.900;8.208;2022-11-15T05:34:09;10.50;99.90
18456;DHT22;9357;49.900;8.208;2022-11-15T05:35:43;10.50;99.90
18456;DHT22;9357;49.900;8.208;2022-11-15T05:37:18;10.50;99.90
18456;DHT22;9357;49.900;8.208;2022-11-15T05:38:51;10.60;99.90
18456;DHT22;9357;49.900;8.208;2022-11-15T05:40:25;10.50;99.90
18456;DHT22;9357;49.900;8.208;2022-11-15T05:42:02;10.50;99.90
18456;DHT22;9357;49.900;8.208;2022-11-15T05:43:38;10.50;99.90
18456;DHT22;9357;49.900;8.208;2022-11-15T05:45:12;10.50;99.90
18456;DHT22;9357;49.900;8.208;2022-11-15T05:46:45;10.50;99.90
18456;DHT22;9357;49.900;8.208;2022-11-15T05:48:17;10.50;99.90
18456;DHT22;9357;49.900;8.208;2022-11-15T05:49:51;10.50;99.90
18456;DHT22;9357;49.900;8.208;2022-11-15T05:51:24;10.50;99.90
18456;DHT22;9357;49.900;8.208;2022-11-15T05:53:00;10.50;99.90
18456;DHT22;9357;49.900;8.208;2022-11-15T05:54:36;10.50;99.90
18456;DHT22;9357;49.900;8.208;2022-11-15T05:56:11;10.50;99.90
18456;DHT22;9357;49.900;8.208;2022-11-15T05:57:45;10.50;99.90
18456;DHT22;9357;49.900;8.208;2022-11-15T05:59:18;10.50;99.90
18456;DHT22;9357;49.900;8.208;2022-11-15T06:00:51;10.60;99.90
18456;DHT22;9357;49.900;8.208;2022-11-15T06:02:23;10.60;99.90
18456;DHT22;9357;49.900;8.208;2022-11-15T06:03:56;10.50;99.90
18456;DHT22;9357;49.900;8.208;2022-11-15T06:05:28;10.50;99.90
18456;DHT22;9357;49.900;8.208;2022-11-15T06:07:01;10.50;99.90
18456;DHT22;9357;49.900;8.208;2022-11-15T06:08:34;10.50;99.90
18456;DHT22;9357;49.900;8.208;2022-11-15T06:10:08;10.50;99.90
18456;DHT22;9357;49.900;8.208;2022-11-15T06:11:42;10.50;99.90
18456;DHT22;9357;49.900;8.208;2022-11-15T06:13:15;10.50;99.90
18456;DHT22;9357;49.900;8.208;2022-11-15T06:14:48;10.50;99.90
18456;DHT22;9357;49.900;8.208;2022-11-15T06:16:21;10.40;99.90
18456;DHT22;9357;49.900;8.208;2022-11-15T06:17:56;10.40;99.90
18456;DHT22;9357;49.900;8.208;2022-11-15T06:19:29;10.40;99.90
18456;DHT22;9357;49.900;8.208;2022-11-15T06:21:04;10.50;99.90
18456;DHT22;9357;49.900;8.208;2022-11-15T06:22:37;10.40;99.90
18456;DHT22;9357;49.900;8.208;2022-11-15T06:24:10;10.50;99.90
18456;DHT22;9357;49.900;8.208;2022-11-15T06:25:43;10.40;99.90
18456;DHT22;9357;49.900;8.208;2022-11-15T06:27:17;10.40;99.90
18456;DHT22;9357;49.900;8.208;2022-11-15T06:28:50;10.40;99.90
18456;DHT22;9357;49.900;8.208;2022-11-15T06:30:23;10.40;99.90
18456;DHT22;9357;49.900;8.208;2022-11-15T06:31:56;10.40;99.90
18456;DHT22;9357;49.900;8.208;2022-11-15T06:33:29;10.40;99.90
18456;DHT22;9357;49.900;8.208;2022-11-15T06:35:01;10.40;99.90
18456;DHT22;9357;49.900;8.208;2022-11-15T06:36:35;10.40;99.90
18456;DHT22;9357;49.900;8.208;2022-11-15T06:38:09;10.40;99.90
18456;DHT22;9357;49.900;8.208;2022-11-15T06:39:43;10.40;99.90
18456;DHT22;9357;49.900;8.208;2022-11-15T06:41:16;10.40;99.90
18456;DHT22;9357;49.900;8.208;2022-11-15T06:42:50;10.50;99.90
18456;DHT22;9357;49.900;8.208;2022-11-15T06:44:23;10.40;99.90
18456;DHT22;9357;49.900;8.208;2022-11-15T06:45:57;10.40;99.90
18456;DHT22;9357;49.900;8.208;2022-11-15T06:47:30;10.40;99.90
18456;DHT22;9357;49.900;8.208;2022-11-15T06:49:03;10.40;99.90
18456;DHT22;9357;49.900;8.208;2022-11-15T06:50:40;10.40;99.90
18456;DHT22;9357;49.900;8.208;2022-11-15T06:52:13;10.40;99.90
18456;DHT22;9357;49.900;8.208;2022-11-15T06:53:46;10.40;99.90
18456;DHT22;9357;49.900;8.208;2022-11-15T06:55:19;10.40;99.90
18456;DHT22;9357;49.900;8.208;2022-11-15T06:56:51;10.40;99.90
18456;DHT22;9357;49.900;8.208;2022-11-15T06:58:26;10.40;99.90
18456;DHT22;9357;49.900;8.208;2022-11-15T06:59:58;10.40;99.90
18456;DHT22;9357;49.900;8.208;2022-11-15T07:01:31;10.50;99.90
18456;DHT22;9357;49.900;8.208;2022-11-15T07:03:04;10.60;99.90
18456;DHT22;9357;49.900;8.208;2022-11-15T07:04:37;10.70;99.90
18456;DHT22;9357;49.900;8.208;2022-11-15T07:06:10;10.70;99.90
18456;DHT22;9357;49.900;8.208;2022-11-15T07:07:43;10.70;99.90
18456;DHT22;9357;49.900;8.208;2022-11-15T07:09:15;10.70;99.90
18456;DHT22;9357;49.900;8.208;2022-11-15T07:10:49;10.80;99.90
18456;DHT22;9357;49.900;8.208;2022-11-15T07:12:22;10.90;99.90
18456;DHT22;9357;49.900;8.208;2022-11-15T07:13:56;10.90;99.90
18456;DHT22;9357;49.900;8.208;2022-11-15T07:15:28;11.10;99.90
18456;DHT22;9357;49.900;8.208;2022-11-15T07:17:03;11.10;99.90
18456;DHT22;9357;49.900;8.208;2022-11-15T07:18:37;11.20;99.90
18456;DHT22;9357;49.900;8.208;2022-11-15T07:20:11;11.30;99.90
18456;DHT22;9357;49.900;8.208;2022-11-15T07:21:44;11.30;99.90
18456;DHT22;9357;49.900;8.208;2022-11-15T07:23:18;11.40;99.90
18456;DHT22;9357;49.900;8.208;2022-11-15T07:24:50;11.50;99.90
18456;DHT22;9357;49.900;8.208;2022-11-15T07:26:23;11.50;99.90
18456;DHT22;9357;49.900;8.208;2022-11-15T07:27:57;11.50;99.90
18456;DHT22;9357;49.900;8.208;2022-11-15T07:29:32;11.50;99.90
18456;DHT22;9357;49.900;8.208;2022-11-15T07:31:06;11.40;99.90
18456;DHT22;9357;49.900;8.208;2022-11-15T07:32:39;11.50;99.90
18456;DHT22;9357;49.900;8.208;2022-11-15T07:34:12;11.50;99.90
18456;DHT22;9357;49.900;8.208;2022-11-15T07:35:45;11.50;99.90
18456;DHT22;9357;49.900;8.208;2022-11-15T07:37:20;11.50;99.90
18456;DHT22;9357;49.900;8.208;2022-11-15T07:38:53;11.60;99.90
18456;DHT22;9357;49.900;8.208;2022-11-15T07:40:27;11.70;99.90
18456;DHT22;9357;49.900;8.208;2022-11-15T07:42:00;11.80;99.90
18456;DHT22;9357;49.900;8.208;2022-11-15T07:43:51;11.90;99.90
18456;DHT22;9357;49.900;8.208;2022-11-15T07:45:25;12.00;99.90
18456;DHT22;9357;49.900;8.208;2022-11-15T07:46:58;12.10;99.90
18456;DHT22;9357;49.900;8.208;2022-11-15T07:48:31;12.20;99.90
18456;DHT22;9357;49.900;8.208;2022-11-15T07:50:15;12.30;99.90
18456;DHT22;9357;49.900;8.208;2022-11-15T07:51:48;12.40;99.90
18456;DHT22;9357;49.900;8.208;2022-11-15T07:53:21;12.50;99.90
18456;DHT22;9357;49.900;8.208;2022-11-15T07:54:54;12.50;99.90
18456;DHT22;9357;49.900;8.208;2022-11-15T07:56:26;12.60;99.90
18456;DHT22;9357;49.900;8.208;2022-11-15T07:58:03;12.70;99.90
18456;DHT22;9357;49.900;8.208;2022-11-15T07:59:36;12.80;99.90
18456;DHT22;9357;49.900;8.208;2022-11-15T08:01:10;12.80;99.90
18456;DHT22;9357;49.900;8.208;2022-11-15T08:02:44;12.90;99.90
18456;DHT22;9357;49.900;8.208;2022-11-15T08:04:17;13.00;99.90
18456;DHT22;9357;49.900;8.208;2022-11-15T08:05:50;13.00;99.90
18456;DHT22;9357;49.900;8.208;2022-11-15T08:07:23;13.00;99.90
18456;DHT22;9357;49.900;8.208;2022-11-15T08:08:56;12.90;99.90
18456;DHT22;9357;49.900;8.208;2022-11-15T08:10:29;12.90;99.90
18456;DHT22;9357;49.900;8.208;2022-11-15T08:12:08;13.00;99.90
18456;DHT22;9357;49.900;8.208;2022-11-15T08:13:41;13.00;99.90
18456;DHT22;9357;49.900;8.208;2022-11-15T08:15:14;13.10;99.90
18456;DHT22;9357;49.900;8.208;2022-11-15T08:16:48;13.10;99.90
18456;DHT22;9357;49.900;8.208;2022-11-15T08:18:20;13.20;99.90
18456;DHT22;9357;49.900;8.208;2022-11-15T08:19:53;13.20;99.90
18456;DHT22;9357;49.900;8.208;2022-11-15T08:21:26;13.30;99.90
18456;DHT22;9357;49.900;8.208;2022-11-15T08:23:00;13.30;99.90
18456;DHT22;9357;49.900;8.208;2022-11-15T08:24:33;13.30;99.90
18456;DHT22;9357;49.900;8.208;2022-11-15T08:26:06;13.30;99.90
18456;DHT22;9357;49.900;8.208;2022-11-15T08:27:39;13.30;99.90
18456;DHT22;9357;49.900;8.208;2022-11-15T08:29:12;13.20;99.90
18456;DHT22;9357;49.900;8.208;2022-11-15T08:30:45;13.10;99.90
18456;DHT22;9357;49.900;8.208;2022-11-15T08:32:19;13.10;99.90
18456;DHT22;9357;49.900;8.208;2022-11-15T08:33:51;13.00;99.90
18456;DHT22;9357;49.900;8.208;2022-11-15T08:35:25;13.00;99.90
18456;DHT22;9357;49.900;8.208;2022-11-15T08:37:00;12.90;99.90
18456;DHT22;9357;49.900;8.208;2022-11-15T08:38:32;12.90;99.90
18456;DHT22;9357;49.900;8.208;2022-11-15T08:40:07;12.90;99.90
18456;DHT22;9357;49.900;8.208;2022-11-15T08:41:40;12.90;99.90
18456;DHT22;9357;49.900;8.208;2022-11-15T08:43:12;12.90;99.90
18456;DHT22;9357;49.900;8.208;2022-11-15T08:44:45;13.00;99.90
18456;DHT22;9357;49.900;8.208;2022-11-15T08:46:18;13.00;99.90
18456;DHT22;9357;49.900;8.208;2022-11-15T08:47:52;13.00;99.90
18456;DHT22;9357;49.900;8.208;2022-11-15T08:49:25;13.00;99.90
18456;DHT22;9357;49.900;8.208;2022-11-15T08:50:58;13.10;99.90
18456;DHT22;9357;49.900;8.208;2022-11-15T08:52:31;13.10;99.90
18456;DHT22;9357;49.900;8.208;2022-11-15T08:54:04;13.30;99.90
18456;DHT22;9357;49.900;8.208;2022-11-15T08:55:37;13.30;99.90
18456;DHT22;9357;49.900;8.208;2022-11-15T08:57:10;13.40;99.90
18456;DHT22;9357;49.900;8.208;2022-11-15T08:58:43;13.40;99.90
18456;DHT22;9357;49.900;8.208;2022-11-15T09:00:17;13.50;99.90
18456;DHT22;9357;49.900;8.208;2022-11-15T09:01:51;13.60;99.90
18456;DHT22;9357;49.900;8.208;2022-11-15T09:03:25;13.60;99.90
18456;DHT22;9357;49.900;8.208;2022-11-15T09:04:58;13.70;99.90
18456;DHT22;9357;49.900;8.208;2022-11-15T09:06:30;13.80;99.90
18456;DHT22;9357;49.900;8.208;2022-11-15T09:08:04;13.80;99.90
18456;DHT22;9357;49.900;8.208;2022-11-15T09:09:58;14.00;99.90
18456;DHT22;9357;49.900;8.208;2022-11-15T09:11:31;14.00;99.90
18456;DHT22;9357;49.900;8.208;2022-11-15T09:13:04;14.10;99.90
18456;DHT22;9357;49.900;8.208;2022-11-15T09:14:37;14.10;99.90
18456;DHT22;9357;49.900;8.208;2022-11-15T09:16:09;14.20;99.90
18456;DHT22;9357;49.900;8.208;2022-11-15T09:17:43;14.20;99.90
18456;DHT22;9357;49.900;8.208;2022-11-15T09:19:17;14.30;99.90
18456;DHT22;9357;49.900;8.208;2022-11-15T09:20:50;14.20;99.90
18456;DHT22;9357;49.900;8.208;2022-11-15T09:22:23;14.20;99.90
18456;DHT22;9357;49.900;8.208;2022-11-15T09:23:56;14.10;99.90
18456;DHT22;9357;49.900;8.208;2022-11-15T09:25:29;14.00;99.90
18456;DHT22;9357;49.900;8.208;2022-11-15T09:27:02;13.80;99.90
18456;DHT22;9357;49.900;8.208;2022-11-15T09:28:36;13.70;99.90
18456;DHT22;9357;49.900;8.208;2022-11-15T09:30:10;13.50;99.90
18456;DHT22;9357;49.900;8.208;2022-11-15T09:31:43;13.30;99.90
18456;DHT22;9357;49.900;8.208;2022-11-15T09:33:16;13.20;99.90
18456;DHT22;9357;49.900;8.208;2022-11-15T09:34:50;13.10;99.90
18456;DHT22;9357;49.900;8.208;2022-11-15T09:36:23;13.00;99.90
18456;DHT22;9357;49.900;8.208;2022-11-15T09:37:57;12.90;99.90
18456;DHT22;9357;49.900;8.208;2022-11-15T09:39:31;12.90;99.90
18456;DHT22;9357;49.900;8.208;2022-11-15T09:41:45;12.80;99.90
18456;DHT22;9357;49.900;8.208;2022-11-15T09:43:28;12.80;99.90
18456;DHT22;9357;49.900;8.208;2022-11-15T09:45:11;12.70;99.90
18456;DHT22;9357;49.900;8.208;2022-11-15T09:46:54;12.70;99.90
18456;DHT22;9357;49.900;8.208;2022-11-15T09:48:46;12.70;99.90
18456;DHT22;9357;49.900;8.208;2022-11-15T09:50:31;12.60;99.90
18456;DHT22;9357;49.900;8.208;2022-11-15T09:52:04;12.60;99.90
18456;DHT22;9357;49.900;8.208;2022-11-15T09:53:41;12.60;99.90
18456;DHT22;9357;49.900;8.208;2022-11-15T09:55:40;12.60;99.90
18456;DHT22;9357;49.900;8.208;2022-11-15T09:57:21;12.50;99.90
18456;DHT22;9357;49.900;8.208;2022-11-15T09:59:04;12.50;99.90
18456;DHT22;9357;49.900;8.208;2022-11-15T10:00:40;12.50;99.90
18456;DHT22;9357;49.900;8.208;2022-11-15T10:02:30;12.40;99.90
18456;DHT22;9357;49.900;8.208;2022-11-15T10:04:05;12.50;99.90
18456;DHT22;9357;49.900;8.208;2022-11-15T10:05:45;12.40;99.90
18456;DHT22;9357;49.900;8.208;2022-11-15T10:07:20;12.40;99.90
18456;DHT22;9357;49.900;8.208;2022-11-15T10:08:59;12.50;99.90
18456;DHT22;9357;49.900;8.208;2022-11-15T10:10:38;12.40;99.90
18456;DHT22;9357;49.900;8.208;2022-11-15T10:12:13;12.40;99.90
18456;DHT22;9357;49.900;8.208;2022-11-15T10:13:47;12.40;99.90